createdAt,value
2023-04-18T00:00:13.905Z,80.88
2023-04-18T00:03:17.336Z,80.26
2023-04-18T00:06:19.199Z,79.88
2023-04-18T00:09:20.875Z,79.89
2023-04-18T00:12:22.828Z,80.04
2023-04-18T00:15:24.580Z,79.25
2023-04-18T00:18:27.616Z,79.55
2023-04-18T00:21:29.292Z,78.93
2023-04-18T00:24:30.967Z,78.96
2023-04-18T00:27:32.584Z,78.66
2023-04-18T00:30:34.519Z,78.67
2023-04-18T00:33:37.957Z,78.88
2023-04-18T00:36:39.821Z,79.00
2023-04-18T00:39:41.661Z,78.37
2023-04-18T00:42:43.288Z,78.35
2023-04-18T00:45:44.980Z,77.69
2023-04-18T00:48:49.016Z,77.89
2023-04-18T00:51:51.104Z,78.10
2023-04-18T00:54:54.054Z,77.87
2023-04-18T00:57:55.796Z,77.73
2023-04-18T01:04:18.301Z,77.49
2023-04-18T01:07:20.226Z,77.48
2023-04-18T01:10:22.054Z,77.65
2023-04-18T01:13:23.676Z,77.90
2023-04-18T01:16:25.757Z,77.80
2023-04-18T01:19:28.865Z,78.54
2023-04-18T01:22:31.919Z,78.20
2023-04-18T01:25:34.910Z,78.69
2023-04-18T01:28:37.167Z,78.04
2023-04-18T01:31:40.302Z,78.08
2023-04-18T01:34:41.975Z,77.58
2023-04-18T01:37:43.732Z,77.70
2023-04-18T01:40:46.788Z,77.34
2023-04-18T01:43:48.480Z,77.01
2023-04-18T01:46:50.218Z,76.80
2023-04-18T01:49:52.069Z,76.89
2023-04-18T01:52:53.983Z,76.93
2023-04-18T01:55:57.049Z,76.99
2023-04-18T01:58:58.746Z,77.09
2023-04-18T02:02:00.459Z,77.03
2023-04-18T02:05:02.262Z,76.89
2023-04-18T02:08:04.324Z,77.09
2023-04-18T02:11:07.350Z,77.38
2023-04-18T02:14:09.059Z,77.85
2023-04-18T02:17:10.727Z,77.23
2023-04-18T02:20:12.476Z,77.64
2023-04-18T02:23:14.374Z,77.94
2023-04-18T02:26:17.350Z,77.89
2023-04-18T02:29:19.207Z,77.59
2023-04-18T02:32:20.889Z,78.03
2023-04-18T02:35:23.546Z,78.19
2023-04-18T02:38:25.411Z,78.45
2023-04-18T02:41:28.410Z,78.90
2023-04-18T02:44:30.074Z,79.80
2023-04-18T02:47:37.493Z,79.12
2023-04-18T02:50:45.842Z,79.10
2023-04-18T02:53:47.766Z,79.77
2023-04-18T02:56:51.845Z,79.83
2023-04-18T02:59:53.719Z,79.76
2023-04-18T03:02:55.516Z,79.24
2023-04-18T03:05:57.247Z,78.82
2023-04-18T03:08:59.024Z,80.39
2023-04-18T03:12:02.150Z,78.69
2023-04-18T03:15:04.370Z,79.73
2023-04-18T03:18:06.181Z,78.65
2023-04-18T03:21:07.862Z,78.83
2023-04-18T03:24:11.981Z,79.05
2023-04-18T03:27:15.281Z,79.02
2023-04-18T03:30:17.738Z,78.81
2023-04-18T03:33:19.415Z,78.88
2023-04-18T03:36:21.112Z,78.80
2023-04-18T03:39:22.726Z,78.37
2023-04-18T03:42:25.663Z,78.14
2023-04-18T03:45:27.402Z,78.73
2023-04-18T03:48:29.177Z,78.81
2023-04-18T03:51:33.343Z,78.63
2023-04-18T03:54:34.969Z,78.51
2023-04-18T03:57:37.959Z,78.74
2023-04-18T04:00:39.581Z,79.25
2023-04-18T04:03:41.453Z,78.99
2023-04-18T04:06:43.604Z,79.33
2023-04-18T04:09:45.423Z,80.01
2023-04-18T04:12:48.487Z,79.28
2023-04-18T04:15:50.731Z,78.95
2023-04-18T04:18:52.353Z,79.35
2023-04-18T04:21:54.150Z,79.72
2023-04-18T04:24:56.481Z,79.94
2023-04-18T04:27:59.607Z,79.79
2023-04-18T04:31:01.525Z,79.12
2023-04-18T04:34:03.465Z,79.11
2023-04-18T04:37:05.122Z,79.21
2023-04-18T04:40:07.734Z,79.73
2023-04-18T04:43:10.717Z,78.53
2023-04-18T04:46:12.498Z,78.49
2023-04-18T04:49:14.273Z,78.35
2023-04-18T04:52:16.472Z,78.07
2023-04-18T04:55:18.338Z,77.98
2023-04-18T04:58:21.420Z,77.83
2023-04-18T05:01:23.160Z,77.03
2023-04-18T05:04:24.918Z,77.58
2023-04-18T05:07:26.740Z,76.07
2023-04-18T05:10:28.402Z,75.38
2023-04-18T05:13:31.718Z,74.95
2023-04-18T05:16:33.547Z,74.37
2023-04-18T05:19:35.431Z,74.66
2023-04-18T05:22:37.347Z,74.37
2023-04-18T05:25:39.145Z,74.28
2023-04-18T05:28:42.547Z,74.09
2023-04-18T05:31:45.130Z,73.81
2023-04-18T05:34:47.072Z,74.04
2023-04-18T05:37:48.768Z,74.05
2023-04-18T05:40:50.390Z,73.89
2023-04-18T05:44:04.261Z,72.74
2023-04-18T05:47:07.338Z,71.52
2023-04-18T05:50:09.674Z,71.70
2023-04-18T05:53:11.383Z,71.68
2023-04-18T05:56:13.190Z,71.22
2023-04-18T05:59:16.850Z,69.56
2023-04-18T06:02:18.403Z,69.37
2023-04-18T06:05:20.863Z,68.60
2023-04-18T06:08:22.588Z,66.74
2023-04-18T06:11:24.446Z,67.14
2023-04-18T06:14:27.570Z,67.34
2023-04-18T06:17:29.453Z,67.08
2023-04-18T06:20:31.219Z,67.03
2023-04-18T06:23:32.985Z,66.63
2023-04-18T06:26:34.997Z,65.76
2023-04-18T06:29:38.264Z,64.56
2023-04-18T06:32:39.952Z,63.96
2023-04-18T06:35:41.706Z,62.44
2023-04-18T06:38:43.456Z,61.74
2023-04-18T06:41:45.431Z,60.64
2023-04-18T06:44:48.409Z,59.85
2023-04-18T06:47:50.429Z,59.44
2023-04-18T06:50:52.429Z,59.33
2023-04-18T06:53:54.682Z,59.16
2023-04-18T06:56:56.404Z,58.23
2023-04-18T06:59:59.390Z,56.80
2023-04-18T07:03:01.259Z,55.00
2023-04-18T07:06:03.120Z,54.92
2023-04-18T07:09:04.867Z,55.24
2023-04-18T07:12:06.812Z,54.55
2023-04-18T07:15:10.733Z,54.35
2023-04-18T07:18:14.547Z,55.18
2023-04-18T07:21:19.764Z,55.18
2023-04-18T07:24:21.384Z,54.62
2023-04-18T07:27:23.037Z,54.58
2023-04-18T07:30:25.989Z,54.66
2023-04-18T07:33:27.647Z,54.20
2023-04-18T07:36:29.803Z,54.04
2023-04-18T07:39:31.591Z,53.16
2023-04-18T07:42:33.268Z,53.32
2023-04-18T07:45:36.373Z,52.20
2023-04-18T07:48:38.281Z,50.93
2023-04-18T07:51:39.920Z,50.22
2023-04-18T07:54:41.606Z,48.73
2023-04-18T07:57:43.896Z,48.57
2023-04-18T08:00:48.098Z,48.09
2023-04-18T08:03:50.217Z,46.83
2023-04-18T08:06:52.585Z,47.60
2023-04-18T08:09:54.263Z,47.22
2023-04-18T08:12:55.961Z,47.36
2023-04-18T08:15:59.613Z,47.67
2023-04-18T08:19:01.312Z,45.24
2023-04-18T08:22:08.480Z,47.39
2023-04-18T08:25:10.168Z,46.39
2023-04-18T08:28:12.498Z,45.70
2023-04-18T08:31:15.593Z,46.05
2023-04-18T08:34:17.330Z,46.45
2023-04-18T08:37:18.967Z,46.95
2023-04-18T08:40:20.880Z,46.25
2023-04-18T08:43:22.621Z,44.80
2023-04-18T08:46:26.345Z,45.28
2023-04-18T08:49:28.134Z,44.94
2023-04-18T08:52:31.996Z,44.42
2023-04-18T08:55:33.827Z,43.13
2023-04-18T08:58:35.475Z,42.45
2023-04-18T09:01:55.927Z,42.91
2023-04-18T09:04:57.587Z,43.09
2023-04-18T09:07:59.318Z,44.32
2023-04-18T09:11:25.375Z,43.08
2023-04-18T09:14:27.071Z,42.51
2023-04-18T09:17:35.184Z,43.15
2023-04-18T09:20:38.576Z,44.54
2023-04-18T09:23:40.163Z,43.62
2023-04-18T09:26:41.945Z,43.35
2023-04-18T09:29:45.253Z,44.13
2023-04-18T09:32:57.895Z,43.39
2023-04-18T09:36:17.674Z,44.09
2023-04-18T09:39:27.199Z,43.24
2023-04-18T09:42:36.077Z,42.95
2023-04-18T09:45:38.545Z,42.61
2023-04-18T09:48:41.733Z,43.83
2023-04-18T09:51:44.187Z,42.52
2023-04-18T09:54:48.340Z,42.30
2023-04-18T09:57:53.111Z,40.54
2023-04-18T10:00:56.280Z,37.01
2023-04-18T10:04:02.068Z,37.25
2023-04-18T10:07:04.447Z,36.26
2023-04-18T10:10:07.367Z,36.88
2023-04-18T10:13:11.455Z,37.11
2023-04-18T10:16:13.812Z,36.05
2023-04-18T10:19:24.717Z,36.59
2023-04-18T10:22:27.580Z,33.31
2023-04-18T10:25:48.229Z,33.28
2023-04-18T10:28:51.699Z,33.74
2023-04-18T10:31:53.468Z,35.05
2023-04-18T10:34:56.668Z,35.94
2023-04-18T10:37:59.950Z,35.64
2023-04-18T10:41:23.985Z,37.85
2023-04-18T10:44:25.671Z,39.15
2023-04-18T10:47:27.665Z,38.77
2023-04-18T10:50:31.082Z,38.26
2023-04-18T10:53:33.146Z,35.90
2023-04-18T10:56:35.072Z,36.68
2023-04-18T10:59:38.906Z,37.66
2023-04-18T11:02:47.658Z,35.56
2023-04-18T11:05:50.989Z,36.31
2023-04-18T11:09:09.374Z,36.38
2023-04-18T11:12:11.534Z,35.58
2023-04-18T11:15:14.624Z,36.28
2023-04-18T11:18:16.404Z,38.24
2023-04-18T11:21:19.765Z,38.64
2023-04-18T11:24:21.952Z,40.10
2023-04-18T11:27:25.182Z,39.41
2023-04-18T11:30:27.756Z,39.37
2023-04-18T11:33:29.582Z,37.68
2023-04-18T11:36:34.296Z,36.79
2023-04-18T11:39:41.273Z,33.49
2023-04-18T11:42:43.160Z,33.07
2023-04-18T11:45:51.486Z,34.35
2023-04-18T11:48:53.371Z,35.77
2023-04-18T11:51:56.737Z,36.90
2023-04-18T11:55:09.775Z,36.54
2023-04-18T11:58:11.504Z,36.44
2023-04-18T12:01:17.986Z,36.47
2023-04-18T12:04:20.113Z,36.54
2023-04-18T12:07:37.314Z,36.20
2023-04-18T12:10:46.879Z,35.89
2023-04-18T12:13:48.546Z,32.89
2023-04-18T12:16:50.350Z,33.25
2023-04-18T12:19:52.076Z,34.04
2023-04-18T12:22:55.175Z,32.61
2023-04-18T12:26:00.915Z,33.88
2023-04-18T12:29:02.589Z,32.99
2023-04-18T12:32:04.698Z,33.16
2023-04-18T12:35:07.601Z,34.54
2023-04-18T12:38:10.715Z,33.50
2023-04-18T12:41:13.802Z,33.61
2023-04-18T12:44:15.709Z,34.74
2023-04-18T12:47:17.583Z,33.64
2023-04-18T12:50:20.890Z,31.58
2023-04-18T12:53:23.967Z,30.34
2023-04-18T12:56:25.817Z,29.14
2023-04-18T12:59:27.466Z,30.23
2023-04-18T13:02:29.282Z,33.20
2023-04-18T13:05:33.490Z,32.67
2023-04-18T13:08:37.355Z,32.75
2023-04-18T13:11:39.032Z,31.34
2023-04-18T13:14:41.830Z,31.46
2023-04-18T13:17:43.943Z,31.24
2023-04-18T13:20:45.730Z,29.37
2023-04-18T13:23:49.027Z,28.94
2023-04-18T13:26:50.785Z,28.16
2023-04-18T13:29:52.501Z,28.21
2023-04-18T13:32:54.231Z,27.35
2023-04-18T13:35:56.072Z,28.36
2023-04-18T13:38:59.107Z,29.24
2023-04-18T13:42:01.388Z,29.42
2023-04-18T13:45:03.352Z,29.98
2023-04-18T13:48:06.447Z,30.56
2023-04-18T13:51:08.186Z,31.73
2023-04-18T13:54:11.281Z,32.44
2023-04-18T13:57:12.950Z,31.77
2023-04-18T14:00:15.464Z,31.93
2023-04-18T14:03:17.316Z,32.04
2023-04-18T14:06:19.059Z,33.36
2023-04-18T14:09:22.180Z,33.42
2023-04-18T14:12:23.893Z,34.68
2023-04-18T14:15:25.974Z,34.86
2023-04-18T14:18:27.679Z,35.26
2023-04-18T14:21:29.745Z,33.54
2023-04-18T14:24:32.867Z,32.95
2023-04-18T14:27:34.509Z,33.91
2023-04-18T14:30:36.813Z,35.31
2023-04-18T14:33:38.777Z,35.42
2023-04-18T14:36:40.468Z,33.81
2023-04-18T14:39:43.566Z,35.85
2023-04-18T14:42:45.286Z,36.35
2023-04-18T14:45:47.251Z,36.29
2023-04-18T14:48:49.320Z,34.36
2023-04-18T14:51:51.466Z,34.04
2023-04-18T14:54:54.826Z,35.14
2023-04-18T14:57:56.342Z,34.21
2023-04-18T15:00:58.041Z,34.54
2023-04-18T15:03:59.804Z,34.08
2023-04-18T15:07:01.868Z,34.40
2023-04-18T15:10:06.096Z,33.92
2023-04-18T15:13:07.925Z,34.38
2023-04-18T15:16:09.616Z,35.51
2023-04-18T15:19:11.334Z,35.35
2023-04-18T15:22:13.379Z,34.05
2023-04-18T15:25:16.570Z,34.96
2023-04-18T15:28:19.271Z,34.98
2023-04-18T15:31:21.094Z,34.03
2023-04-18T15:34:22.989Z,34.13
2023-04-18T15:37:24.716Z,34.75
2023-04-18T15:40:28.169Z,34.33
2023-04-18T15:43:29.891Z,33.78
2023-04-18T15:46:31.871Z,34.25
2023-04-18T15:49:33.651Z,34.27
2023-04-18T15:52:35.631Z,34.26
2023-04-18T15:55:39.062Z,34.14
2023-04-18T15:58:40.999Z,33.95
2023-04-18T16:01:45.194Z,34.25
2023-04-18T16:04:47.855Z,34.40
2023-04-18T16:07:49.693Z,34.36
2023-04-18T16:10:53.260Z,34.83
2023-04-18T16:13:55.205Z,35.40
2023-04-18T16:16:59.203Z,36.06
2023-04-18T16:20:00.877Z,37.25
2023-04-18T16:23:02.601Z,37.40
2023-04-18T16:26:06.312Z,38.47
2023-04-18T16:29:08.296Z,38.75
2023-04-18T16:32:10.078Z,38.79
2023-04-18T16:35:12.481Z,37.86
2023-04-18T16:38:14.426Z,38.05
2023-04-18T16:41:17.805Z,38.38
2023-04-18T16:44:19.281Z,38.29
2023-04-18T16:47:21.252Z,38.32
2023-04-18T16:50:23.319Z,36.15
2023-04-18T16:53:26.070Z,36.10
2023-04-18T16:56:29.310Z,35.69
2023-04-18T16:59:31.724Z,35.93
2023-04-18T17:02:33.916Z,36.06
2023-04-18T17:05:35.916Z,36.15
2023-04-18T17:08:37.596Z,37.25
2023-04-18T17:11:41.055Z,37.15
2023-04-18T17:14:44.018Z,37.95
2023-04-18T17:17:45.819Z,38.24
2023-04-18T17:20:47.982Z,38.80
2023-04-18T17:23:50.162Z,39.64
2023-04-18T17:26:53.297Z,40.12
2023-04-18T17:29:55.020Z,40.55
2023-04-18T17:32:57.727Z,40.88
2023-04-18T17:36:00.808Z,41.70
2023-04-18T17:39:03.092Z,41.65
2023-04-18T17:42:07.146Z,42.09
2023-04-18T17:45:10.145Z,42.51
2023-04-18T17:48:12.307Z,43.69
2023-04-18T17:51:15.246Z,45.47
2023-04-18T17:54:17.730Z,43.50
2023-04-18T17:57:24.483Z,43.82
2023-04-18T18:00:26.856Z,43.66
2023-04-18T18:03:31.972Z,45.02
2023-04-18T18:06:34.177Z,45.08
2023-04-18T18:09:37.709Z,45.62
2023-04-18T18:12:42.476Z,44.67
2023-04-18T18:15:45.468Z,45.34
2023-04-18T18:18:50.747Z,46.90
2023-04-18T18:21:59.331Z,46.05
2023-04-18T18:25:03.232Z,44.44
2023-04-18T18:28:12.896Z,44.30
2023-04-18T18:31:17.676Z,43.06
2023-04-18T18:34:20.010Z,42.43
2023-04-18T18:37:41.923Z,42.31
2023-04-18T18:40:53.639Z,42.38
2023-04-18T18:43:57.236Z,42.53
2023-04-18T18:47:28.692Z,41.76
2023-04-18T18:50:42.153Z,41.63
2023-04-18T18:53:59.872Z,41.34
2023-04-18T18:57:04.195Z,41.28
2023-04-18T19:00:09.769Z,40.88
2023-04-18T19:03:13.762Z,40.52
2023-04-18T19:06:24.312Z,40.08
2023-04-18T19:09:44.598Z,40.14
2023-04-18T19:12:52.886Z,40.09
2023-04-18T19:15:59.048Z,39.98
2023-04-18T19:19:02.145Z,40.47
2023-04-18T19:22:04.787Z,40.75
2023-04-18T19:25:28.499Z,40.96
2023-04-18T19:28:34.388Z,40.81
2023-04-18T19:31:40.746Z,41.26
2023-04-18T19:34:43.471Z,41.56
2023-04-18T19:37:45.228Z,41.56
2023-04-18T19:40:47.004Z,41.64
2023-04-18T19:43:49.138Z,42.37
2023-04-18T19:46:54.698Z,42.41
2023-04-18T19:49:57.326Z,42.88
2023-04-18T19:52:59.664Z,42.51
2023-04-18T19:56:18.793Z,43.21
2023-04-18T19:59:30.979Z,43.72
2023-04-18T20:02:35.528Z,43.75
2023-04-18T20:05:37.754Z,43.86
2023-04-18T20:08:42.380Z,44.09
2023-04-18T20:11:55.362Z,44.73
2023-04-18T20:14:58.247Z,45.02
2023-04-18T20:18:02.386Z,45.88
2023-04-18T20:21:08.512Z,45.62
2023-04-18T20:24:12.280Z,45.93
2023-04-18T20:27:14.753Z,46.40
2023-04-18T20:30:16.840Z,45.92
2023-04-18T20:33:20.520Z,46.18
2023-04-18T20:36:23.547Z,46.18
2023-04-18T20:39:38.275Z,45.45
2023-04-18T20:42:41.157Z,44.58
2023-04-18T20:45:43.639Z,43.96
2023-04-18T20:48:47.466Z,44.17
2023-04-18T20:51:49.280Z,44.08
2023-04-18T20:54:51.378Z,43.91
2023-04-18T20:57:53.581Z,43.70
2023-04-18T21:00:55.334Z,42.88
2023-04-18T21:03:58.598Z,43.11
2023-04-18T21:07:00.700Z,42.34
2023-04-18T21:10:02.974Z,42.39
2023-04-18T21:13:04.656Z,42.80
2023-04-18T21:16:07.074Z,43.00
2023-04-18T21:19:10.642Z,43.55
2023-04-18T21:22:13.001Z,43.79
2023-04-18T21:25:14.709Z,43.21
2023-04-18T21:28:18.706Z,43.88
2023-04-18T21:31:20.432Z,43.60
2023-04-18T21:34:23.510Z,43.90
2023-04-18T21:37:25.321Z,43.43
2023-04-18T21:40:27.273Z,43.89
2023-04-18T21:43:29.083Z,44.37
2023-04-18T21:46:31.074Z,44.95
2023-04-18T21:49:34.190Z,45.14
2023-04-18T21:52:35.898Z,46.10
2023-04-18T21:55:37.554Z,46.19
2023-04-18T21:58:39.319Z,46.55
2023-04-18T22:01:41.200Z,46.51
2023-04-18T22:04:44.283Z,46.35
2023-04-18T22:07:54.983Z,47.13
2023-04-18T22:11:00.326Z,47.07
2023-04-18T22:14:01.998Z,47.49
2023-04-18T22:17:03.804Z,47.62
2023-04-18T22:20:08.445Z,47.83
2023-04-18T22:23:10.864Z,47.72
2023-04-18T22:26:13.123Z,47.45
2023-04-18T22:29:15.058Z,47.52
2023-04-18T22:32:16.709Z,47.76
2023-04-18T22:35:20.099Z,47.76
2023-04-18T22:38:22.058Z,47.35
2023-04-18T22:41:23.986Z,47.61
2023-04-18T22:44:25.952Z,47.28
2023-04-18T22:47:27.928Z,47.64
2023-04-18T22:50:30.930Z,47.06
2023-04-18T22:53:32.846Z,47.44
2023-04-18T22:56:34.834Z,47.20
2023-04-18T22:59:36.560Z,46.96
2023-04-18T23:02:38.685Z,47.11
2023-04-18T23:05:41.960Z,47.47
2023-04-18T23:08:43.647Z,47.59
2023-04-18T23:11:45.553Z,47.33
2023-04-18T23:14:48.080Z,47.39
2023-04-18T23:17:51.951Z,47.44
2023-04-18T23:20:55.136Z,47.18
2023-04-18T23:23:56.829Z,47.90
2023-04-18T23:26:58.608Z,47.40
2023-04-18T23:30:00.498Z,47.89
2023-04-18T23:33:02.516Z,47.61
2023-04-18T23:36:06.231Z,47.26
2023-04-18T23:39:08.136Z,47.55
2023-04-18T23:42:12.431Z,47.96
2023-04-18T23:45:14.579Z,48.16
2023-04-18T23:48:16.522Z,48.10
2023-04-18T23:51:19.634Z,48.40
2023-04-18T23:54:21.252Z,48.10
2023-04-18T23:57:22.978Z,48.28
